createdAt,value
2023-05-12T00:01:21.052Z,11.20
2023-05-12T00:06:22.821Z,11.20
2023-05-12T00:11:24.891Z,11.20
2023-05-12T00:16:28.494Z,11.20
2023-05-12T00:21:30.334Z,11.20
2023-05-12T00:26:32.137Z,11.20
2023-05-12T00:31:35.561Z,11.30
2023-05-12T00:36:37.373Z,11.20
2023-05-12T00:41:39.186Z,11.20
2023-05-12T00:46:42.418Z,11.20
2023-05-12T00:51:44.189Z,11.20
2023-05-12T00:56:46.072Z,11.10
2023-05-12T01:01:51.526Z,11.20
2023-05-12T01:06:56.788Z,11.20
2023-05-12T01:11:58.523Z,11.10
2023-05-12T01:17:07.581Z,11.20
2023-05-12T01:22:10.039Z,11.20
2023-05-12T01:27:14.503Z,11.20
2023-05-12T01:32:16.643Z,11.20
2023-05-12T01:37:18.654Z,11.20
2023-05-12T01:42:21.887Z,11.20
2023-05-12T01:47:26.152Z,11.20
2023-05-12T01:52:27.973Z,11.10
2023-05-12T01:57:49.796Z,11.10
2023-05-12T02:02:51.663Z,11.20
2023-05-12T02:07:55.664Z,11.10
2023-05-12T02:12:58.771Z,11.20
2023-05-12T02:18:00.625Z,11.20
2023-05-12T02:23:02.395Z,11.20
2023-05-12T02:28:05.569Z,11.30
2023-05-12T02:33:07.303Z,11.40
2023-05-12T02:38:12.112Z,11.40
2023-05-12T02:43:15.354Z,11.40
2023-05-12T02:48:17.089Z,11.50
2023-05-12T02:53:18.837Z,11.50
2023-05-12T02:58:22.405Z,11.50
2023-05-12T03:03:24.310Z,11.50
2023-05-12T03:08:26.201Z,11.40
2023-05-12T03:13:29.329Z,11.50
2023-05-12T03:18:31.111Z,11.40
2023-05-12T03:23:32.859Z,11.40
2023-05-12T03:28:36.022Z,11.40
2023-05-12T03:33:37.807Z,11.30
2023-05-12T03:38:39.527Z,11.30
2023-05-12T03:43:42.596Z,11.30
2023-05-12T03:48:44.480Z,11.20
2023-05-12T03:53:46.287Z,11.30
2023-05-12T03:58:51.092Z,11.10
2023-05-12T04:03:52.986Z,11.00
2023-05-12T04:08:54.800Z,11.00
2023-05-12T04:19:29.846Z,10.90
2023-05-12T04:24:31.696Z,10.90
2023-05-12T04:29:34.780Z,10.90
2023-05-12T04:34:36.506Z,10.80
2023-05-12T04:39:38.247Z,10.80
2023-05-12T04:44:41.466Z,10.80
2023-05-12T04:49:43.262Z,10.80
2023-05-12T04:54:45.051Z,10.90
2023-05-12T04:59:48.363Z,10.90
2023-05-12T05:04:50.117Z,11.00
2023-05-12T05:09:51.833Z,11.00
2023-05-12T05:14:55.484Z,11.10
2023-05-12T05:19:59.646Z,11.20
2023-05-12T05:25:01.748Z,11.10
2023-05-12T05:30:06.123Z,11.30
2023-05-12T05:35:08.462Z,11.30
2023-05-12T05:40:10.567Z,11.30
2023-05-12T05:45:13.702Z,11.50
2023-05-12T05:50:15.706Z,11.60
2023-05-12T05:55:17.537Z,11.50
2023-05-12T06:00:21.164Z,11.50
2023-05-12T06:05:23.235Z,11.40
2023-05-12T06:10:25.311Z,11.40
2023-05-12T06:15:28.463Z,11.50
2023-05-12T06:20:30.342Z,11.50
2023-05-12T06:25:32.036Z,11.60
2023-05-12T06:30:35.069Z,11.80
2023-05-12T06:35:36.773Z,12.10
2023-05-12T06:40:38.522Z,12.30
2023-05-12T06:45:41.912Z,12.40
2023-05-12T06:50:50.324Z,12.30
2023-05-12T06:55:52.127Z,12.30
2023-05-12T07:00:55.233Z,12.30
2023-05-12T07:05:56.997Z,12.30
2023-05-12T07:11:02.581Z,12.40
2023-05-12T07:16:06.499Z,12.40
2023-05-12T07:21:08.603Z,12.40
2023-05-12T07:26:10.526Z,12.50
2023-05-12T07:31:13.770Z,12.40
2023-05-12T07:36:15.626Z,12.60
2023-05-12T07:41:17.311Z,12.50
2023-05-12T07:46:20.594Z,12.50
2023-05-12T07:51:30.148Z,12.60
2023-05-12T07:56:31.945Z,12.50
2023-05-12T08:01:35.196Z,12.60
2023-05-12T08:06:36.959Z,12.70
2023-05-12T08:11:38.862Z,12.80
2023-05-12T08:16:41.973Z,12.80
2023-05-12T08:21:43.671Z,12.80
2023-05-12T08:26:45.413Z,12.80
2023-05-12T08:31:48.575Z,12.90
2023-05-12T08:36:51.736Z,13.10
2023-05-12T08:42:01.528Z,13.30
2023-05-12T08:47:05.796Z,13.50
2023-05-12T08:52:09.090Z,13.70
2023-05-12T08:57:10.964Z,13.60
2023-05-12T09:02:15.652Z,13.60
2023-05-12T09:07:20.202Z,13.60
2023-05-12T09:12:22.164Z,14.00
2023-05-12T09:17:27.664Z,14.20
2023-05-12T09:22:31.938Z,14.20
2023-05-12T09:27:33.833Z,14.40
2023-05-12T09:32:37.122Z,14.90
2023-05-12T09:37:39.646Z,15.00
2023-05-12T09:42:42.564Z,14.50
2023-05-12T09:47:45.704Z,13.90
2023-05-12T09:52:47.547Z,13.60
2023-05-12T09:57:50.170Z,13.40
2023-05-12T10:02:53.791Z,13.30
2023-05-12T10:08:00.112Z,13.30
2023-05-12T10:13:01.868Z,13.50
2023-05-12T10:18:05.323Z,13.60
2023-05-12T10:23:08.564Z,13.50
2023-05-12T10:28:10.434Z,13.50
2023-05-12T10:33:13.686Z,13.70
2023-05-12T10:38:16.056Z,13.90
2023-05-12T10:43:25.615Z,14.10
2023-05-12T10:48:28.815Z,14.20
2023-05-12T10:53:47.590Z,14.40
2023-05-12T10:59:13.741Z,14.60
2023-05-12T11:04:17.928Z,14.60
2023-05-12T11:09:21.741Z,14.40
2023-05-12T11:14:24.496Z,14.10
2023-05-12T11:19:27.699Z,13.90
2023-05-12T11:24:29.412Z,13.80
2023-05-12T11:29:33.775Z,14.00
2023-05-12T11:34:36.989Z,14.20
2023-05-12T11:39:38.766Z,14.60
2023-05-12T11:44:47.060Z,15.30
2023-05-12T11:49:51.221Z,15.50
2023-05-12T11:54:57.280Z,15.60
2023-05-12T12:00:00.351Z,15.60
2023-05-12T12:05:15.792Z,15.70
2023-05-12T12:10:18.803Z,15.80
2023-05-12T12:15:20.737Z,15.60
2023-05-12T12:20:24.408Z,15.30
2023-05-12T12:25:26.121Z,15.50
2023-05-12T12:30:27.863Z,15.50
2023-05-12T12:35:33.425Z,15.40
2023-05-12T12:40:35.176Z,15.70
2023-05-12T12:45:38.266Z,15.90
2023-05-12T12:50:41.486Z,15.70
2023-05-12T12:55:43.217Z,15.20
2023-05-12T13:00:45.063Z,15.10
2023-05-12T13:05:49.546Z,15.10
2023-05-12T13:10:51.250Z,15.10
2023-05-12T13:15:53.213Z,15.10
2023-05-12T13:20:56.402Z,15.20
2023-05-12T13:25:58.156Z,15.30
2023-05-12T13:30:59.939Z,15.40
2023-05-12T13:36:03.236Z,15.60
2023-05-12T13:41:08.114Z,15.80
2023-05-12T13:46:09.881Z,16.00
2023-05-12T13:51:13.118Z,16.20
2023-05-12T13:56:15.375Z,16.40
2023-05-12T14:01:17.344Z,16.30
2023-05-12T14:06:20.476Z,16.30
2023-05-12T14:11:22.345Z,16.40
2023-05-12T14:16:24.094Z,16.30
2023-05-12T14:21:27.350Z,16.30
2023-05-12T14:26:29.188Z,16.40
2023-05-12T14:31:31.016Z,16.50
2023-05-12T14:36:34.384Z,16.50
2023-05-12T14:41:39.111Z,16.70
2023-05-12T14:46:41.829Z,16.90
2023-05-12T14:51:45.008Z,16.80
2023-05-12T14:56:46.855Z,17.00
2023-05-12T15:01:48.779Z,16.80
2023-05-12T15:06:52.015Z,16.60
2023-05-12T15:11:53.800Z,16.80
2023-05-12T15:16:55.561Z,16.90
2023-05-12T15:21:58.757Z,17.00
2023-05-12T15:27:00.738Z,17.10
2023-05-12T15:32:03.110Z,16.90
2023-05-12T15:37:06.406Z,16.80
2023-05-12T15:42:08.535Z,16.70
2023-05-12T15:47:10.317Z,16.70
2023-05-12T15:52:13.511Z,16.60
2023-05-12T15:57:15.230Z,16.40
2023-05-12T16:02:17.191Z,16.40
2023-05-12T16:07:20.395Z,16.50
2023-05-12T16:12:22.322Z,16.60
2023-05-12T16:17:24.234Z,16.80
2023-05-12T16:22:27.422Z,16.80
2023-05-12T16:27:29.176Z,16.80
2023-05-12T16:32:30.949Z,16.60
2023-05-12T16:37:34.092Z,16.50
2023-05-12T16:42:35.865Z,16.40
2023-05-12T16:47:37.750Z,16.30
2023-05-12T16:52:41.140Z,16.30
2023-05-12T16:57:48.045Z,16.10
2023-05-12T17:02:50.130Z,16.00
2023-05-12T17:07:53.302Z,16.00
2023-05-12T17:12:54.999Z,16.00
2023-05-12T17:17:56.801Z,15.80
2023-05-12T17:22:59.919Z,15.80
2023-05-12T17:28:03.741Z,15.60
2023-05-12T17:33:05.700Z,15.50
2023-05-12T17:38:08.923Z,15.40
2023-05-12T17:43:10.774Z,15.40
2023-05-12T17:48:12.792Z,15.30
2023-05-12T17:53:16.010Z,15.20
2023-05-12T17:58:20.853Z,15.20
2023-05-12T18:03:29.381Z,15.00
2023-05-12T18:08:32.942Z,15.10
2023-05-12T18:13:34.753Z,15.10
2023-05-12T18:18:36.551Z,15.00
2023-05-12T18:23:42.648Z,15.00
2023-05-12T18:28:46.970Z,14.90
2023-05-12T18:33:49.783Z,14.80
2023-05-12T18:38:53.121Z,14.60
2023-05-12T18:43:54.783Z,14.50
2023-05-12T18:48:56.716Z,14.40
2023-05-12T18:53:59.833Z,13.90
2023-05-12T18:59:01.520Z,13.60
2023-05-12T19:04:03.334Z,13.70
2023-05-12T19:09:06.385Z,13.90
2023-05-12T19:14:08.066Z,14.00
2023-05-12T19:19:09.910Z,14.00
2023-05-12T19:24:13.203Z,13.90
2023-05-12T19:29:14.999Z,13.50
2023-05-12T19:34:16.783Z,13.10
2023-05-12T19:39:19.979Z,12.90
2023-05-12T19:44:21.679Z,12.80
2023-05-12T19:49:23.365Z,12.70
2023-05-12T19:54:26.470Z,12.60
2023-05-12T19:59:28.168Z,12.50
2023-05-12T20:04:29.946Z,12.40
2023-05-12T20:09:32.993Z,12.20
2023-05-12T20:14:34.784Z,12.00
2023-05-12T20:19:36.471Z,11.90
2023-05-12T20:24:39.600Z,11.70
2023-05-12T20:29:41.338Z,11.60
2023-05-12T20:34:42.989Z,11.30
2023-05-12T20:39:46.097Z,11.20
2023-05-12T20:44:48.620Z,11.10
2023-05-12T20:49:55.054Z,11.10
2023-05-12T20:54:59.159Z,10.70
2023-05-12T21:00:00.857Z,10.40
2023-05-12T21:05:03.001Z,10.10
2023-05-12T21:10:08.259Z,10.10
2023-05-12T21:15:10.963Z,10.00
2023-05-12T21:20:12.804Z,9.80
2023-05-12T21:25:15.956Z,9.80
2023-05-12T21:30:17.700Z,9.80
2023-05-12T21:35:19.582Z,9.70
2023-05-12T21:40:22.933Z,9.40
2023-05-12T21:45:24.736Z,9.00
2023-05-12T21:50:26.458Z,9.00
2023-05-12T21:55:29.508Z,8.90
2023-05-12T22:00:31.211Z,8.80
2023-05-12T22:05:33.443Z,8.80
2023-05-12T22:10:36.691Z,8.80
2023-05-12T22:15:38.414Z,8.70
2023-05-12T22:20:40.131Z,8.60
2023-05-12T22:25:43.268Z,8.60
2023-05-12T22:30:44.993Z,8.50
2023-05-12T22:35:46.734Z,8.40
2023-05-12T22:40:49.848Z,8.20
2023-05-12T22:45:51.987Z,8.10
2023-05-12T22:50:53.974Z,8.00
2023-05-12T22:55:57.049Z,7.90
2023-05-12T23:01:00.247Z,7.80
2023-05-12T23:06:01.969Z,7.60
2023-05-12T23:11:05.225Z,7.50
2023-05-12T23:16:07.509Z,7.50
2023-05-12T23:21:09.253Z,7.50
2023-05-12T23:26:12.218Z,7.60
2023-05-12T23:31:13.857Z,7.50
2023-05-12T23:36:15.556Z,7.60
2023-05-12T23:41:18.575Z,7.70
2023-05-12T23:46:20.313Z,8.00
2023-05-12T23:51:22.093Z,8.20
2023-05-12T23:56:25.226Z,8.50
